Time;durP1;ratioP1;P1;durP2;ratioP2;P2;SDS_P1;SDS_P2;PMS_P1;PMS_P2;Temp;Humidity;BMP_temperature;BMP_pressure;BME280_temperature;BME280_humidity;BME280_pressure;Samples;Min_cycle;Max_cycle;Signal;HPM_P1;HPM_P2
2021/05/29 00:08:48;;;;;;;2.40;1.58;;;21.90;52.80;;;;;;21002096;28;20044;-63
2021/05/29 00:18:50;;;;;;;5.88;2.20;;;21.70;53.20;;;;;;21001231;28;20090;-63
2021/05/29 00:28:52;;;;;;;4.05;2.08;;;21.70;53.30;;;;;;21000656;28;20098;-63
2021/05/29 00:38:53;;;;;;;3.70;1.80;;;21.60;53.50;;;;;;20998429;28;20048;-63
2021/05/29 00:48:54;;;;;;;2.53;2.00;;;21.60;53.60;;;;;;20998556;28;20481;-63
2021/05/29 00:58:56;;;;;;;3.25;1.98;;;21.60;53.70;;;;;;20997652;28;20059;-63
2021/05/29 01:08:57;;;;;;;3.50;2.15;;;21.50;53.60;;;;;;20997482;28;20049;-63
2021/05/29 01:18:58;;;;;;;2.78;2.05;;;21.50;53.40;;;;;;20994702;28;20057;-63
2021/05/29 01:29:00;;;;;;;2.65;1.88;;;21.40;53.60;;;;;;20996028;28;20048;-63
2021/05/29 01:39:01;;;;;;;3.60;2.65;;;21.30;53.90;;;;;;20995611;28;20056;-63
2021/05/29 01:49:03;;;;;;;3.33;2.20;;;21.20;54.30;;;;;;20996010;28;20045;-63
2021/05/29 01:59:04;;;;;;;3.08;2.03;;;21.20;54.40;;;;;;20995388;28;20056;-64
2021/05/29 02:09:06;;;;;;;3.17;2.20;;;21.20;54.60;;;;;;20994218;28;20477;-63
2021/05/29 02:19:07;;;;;;;5.97;2.33;;;21.10;54.60;;;;;;20992827;28;20508;-64
2021/05/29 02:29:08;;;;;;;3.40;2.38;;;21.00;54.70;;;;;;20993951;28;20044;-63
2021/05/29 02:39:10;;;;;;;4.45;2.40;;;20.90;54.90;;;;;;21008480;28;20455;-63
2021/05/29 02:49:11;;;;;;;3.20;2.50;;;20.90;54.80;;;;;;21007860;28;20045;-63
2021/05/29 02:59:13;;;;;;;4.43;3.65;;;20.70;55.20;;;;;;21006237;28;20044;-63
2021/05/29 03:09:14;;;;;;;4.88;2.83;;;20.70;55.60;;;;;;21006552;28;20049;-63
2021/05/29 03:19:16;;;;;;;7.10;2.85;;;20.40;56.30;;;;;;21005990;28;20048;-63
2021/05/29 03:29:17;;;;;;;4.10;2.40;;;20.20;57.00;;;;;;21006573;28;20061;-64
2021/05/29 03:39:18;;;;;;;4.82;2.60;;;20.10;57.40;;;;;;21004552;28;20056;-64
2021/05/29 03:49:20;;;;;;;5.30;3.15;;;20.00;57.70;;;;;;21003127;28;20083;-64
2021/05/29 03:59:21;;;;;;;4.07;2.70;;;20.00;57.70;;;;;;21002562;28;20059;-64
2021/05/29 04:09:23;;;;;;;4.65;3.10;;;19.90;57.90;;;;;;21002461;28;20041;-64
2021/05/29 04:19:24;;;;;;;4.80;3.20;;;19.90;58.10;;;;;;21001121;28;20390;-64
2021/05/29 04:29:25;;;;;;;5.07;3.00;;;19.70;58.70;;;;;;21004264;28;20075;-65
2021/05/29 04:39:27;;;;;;;5.20;3.10;;;19.60;59.00;;;;;;21001003;28;20056;-63
2021/05/29 04:49:29;;;;;;;7.20;3.35;;;19.60;59.00;;;;;;21000042;28;20052;-63
2021/05/29 04:59:31;;;;;;;5.43;3.10;;;19.60;59.10;;;;;;20996658;28;20386;-63
2021/05/29 05:09:32;;;;;;;6.40;3.38;;;19.60;59.10;;;;;;20996818;28;20059;-63
2021/05/29 05:19:34;;;;;;;5.25;2.85;;;19.40;59.30;;;;;;20996999;28;20052;-64
2021/05/29 05:29:35;;;;;;;5.40;3.55;;;19.40;59.30;;;;;;20996444;28;20059;-64
2021/05/29 05:39:37;;;;;;;5.95;3.35;;;19.30;59.30;;;;;;20996139;28;20052;-63
2021/05/29 05:49:38;;;;;;;5.22;3.55;;;19.30;59.40;;;;;;20996323;28;20131;-64
2021/05/29 05:59:40;;;;;;;7.00;3.28;;;19.30;59.30;;;;;;20995557;28;20060;-64
2021/05/29 06:09:41;;;;;;;6.22;3.25;;;19.50;58.70;;;;;;21005289;28;20048;-66
2021/05/29 06:19:42;;;;;;;5.03;2.90;;;19.60;58.70;;;;;;21010060;28;20049;-63
2021/05/29 06:29:44;;;;;;;5.38;3.33;;;19.60;58.80;;;;;;21010121;28;20135;-64
2021/05/29 06:39:45;;;;;;;4.28;2.70;;;19.90;57.70;;;;;;21009501;28;20064;-64
2021/05/29 06:49:47;;;;;;;5.53;2.63;;;20.00;57.20;;;;;;21009049;28;20060;-64
2021/05/29 06:59:48;;;;;;;4.38;2.60;;;20.40;56.30;;;;;;21006936;28;20052;-62
2021/05/29 07:09:49;;;;;;;4.22;2.70;;;21.20;54.10;;;;;;21006573;28;20044;-64
2021/05/29 07:19:50;;;;;;;3.80;2.70;;;21.80;52.40;;;;;;21004851;28;20105;-64
2021/05/29 07:29:52;;;;;;;4.75;3.10;;;22.50;51.10;;;;;;21003336;28;20047;-63
2021/05/29 07:39:53;;;;;;;5.25;3.20;;;23.10;49.70;;;;;;21003171;28;20410;-63
2021/05/29 07:49:55;;;;;;;8.23;3.10;;;23.60;48.30;;;;;;21003816;28;20045;-63
2021/05/29 07:59:56;;;;;;;10.60;3.40;;;24.00;47.50;;;;;;21002827;28;20048;-62
2021/05/29 08:09:57;;;;;;;7.23;3.73;;;24.60;45.40;;;;;;21000498;28;20060;-62
2021/05/29 08:19:59;;;;;;;5.00;2.53;;;25.00;44.00;;;;;;21000187;28;20048;-64
2021/05/29 08:30:02;;;;;;;6.60;2.80;;;25.40;43.30;;;;;;20999544;28;20056;-63
2021/05/29 08:40:04;;;;;;;16.73;4.30;;;25.80;42.30;;;;;;20999291;28;20052;-63
2021/05/29 08:50:07;;;;;;;28.17;4.97;;;26.10;42.20;;;;;;20998269;28;20106;-63
2021/05/29 09:00:12;;;;;;;4.75;2.58;;;26.50;41.20;;;;;;20997923;28;20499;-64
2021/05/29 09:10:18;;;;;;;6.50;3.15;;;26.70;40.50;;;;;;20997973;28;20064;-63
2021/05/29 09:20:21;;;;;;;7.57;3.25;;;26.90;39.90;;;;;;20996611;28;20488;-62
2021/05/29 09:30:41;;;;;;;11.65;3.38;;;;;;;;;;20996003;28;20109;-63
2021/05/29 09:40:50;;;;;;;6.63;3.33;;;;;;;;;;20995795;28;20079;-62
2021/05/29 09:51:11;;;;;;;5.80;3.03;;;;;;;;;;20995446;28;20090;-62
2021/05/29 10:01:33;;;;;;;20.45;4.40;;;;;;;;;;20993458;28;20056;-62
2021/05/29 10:11:36;;;;;;;5.45;2.30;;;;;;;;;;20992914;28;20071;-63
2021/05/29 10:21:38;;;;;;;7.60;2.80;;;;;;;;;;20993488;28;20083;-62
2021/05/29 10:31:41;;;;;;;10.25;3.42;;;;;;;;;;20992656;28;20496;-62
2021/05/29 10:41:44;;;;;;;8.18;2.67;;;;;;;;;;20991990;28;20059;-62
2021/05/29 10:51:46;;;;;;;11.95;3.70;;;;;;;;;;20994798;28;20090;-62
2021/05/29 11:01:50;;;;;;;8.48;2.67;;;;;;;;;;21007221;28;20055;-62
2021/05/29 11:11:53;;;;;;;5.97;2.97;;;;;;;;;;21006457;28;20461;-63
2021/05/29 11:22:11;;;;;;;7.07;3.17;;;;;;;;;;21005489;28;20049;-62
2021/05/29 11:32:12;;;;;;;3.65;2.20;;;;;;;;;;21003947;28;20045;-61
2021/05/29 11:42:14;;;;;;;6.97;2.47;;;;;;;;;;21002373;28;20045;-62
2021/05/29 11:52:16;;;;;;;4.53;2.35;;;;;;;;;;21002194;28;20075;-62
2021/05/29 12:02:17;;;;;;;11.57;5.75;;;;;;;;;;21000379;28;20041;-63
2021/05/29 12:12:21;;;;;;;6.70;3.70;;;30.10;30.50;;;;;;21000401;28;20056;-63
2021/05/29 12:22:27;;;;;;;7.70;4.13;;;29.30;31.50;;;;;;20999347;28;20044;-63
2021/05/29 12:32:40;;;;;;;7.70;2.83;;;29.50;30.60;;;;;;20997418;28;20060;-63
2021/05/29 12:42:49;;;;;;;6.97;3.63;;;29.50;30.20;;;;;;20999049;28;20049;-62
2021/05/29 12:52:51;;;;;;;5.13;2.83;;;29.60;30.20;;;;;;20998803;28;20489;-62
2021/05/29 13:13:24;;;;;;;5.00;2.55;;;;;;;;;;20997021;28;20048;-62
2021/05/29 13:23:26;;;;;;;7.60;3.30;;;;;;;;;;20996334;28;20385;-62
2021/05/29 13:33:31;;;;;;;11.00;3.80;;;;;;;;;;20998533;28;20512;-62
2021/05/29 13:43:33;;;;;;;4.13;2.30;;;;;;;;;;20997495;28;20044;-62
2021/05/29 13:53:36;;;;;;;4.13;2.35;;;;;;;;;;20995911;28;20140;-62
2021/05/29 14:03:38;;;;;;;5.15;2.53;;;;;;;;;;20998022;28;20402;-63
2021/05/29 14:13:40;;;;;;;4.32;2.58;;;;;;;;;;20995737;28;20102;-63
2021/05/29 14:23:41;;;;;;;4.35;2.30;;;;;;;;;;20976649;28;20091;-63
2021/05/29 14:33:44;;;;;;;4.35;2.80;;;;;;;;;;21006952;28;20060;-62
2021/05/29 14:43:46;;;;;;;4.72;2.50;;;;;;;;;;21009951;28;20049;-63
2021/05/29 14:53:51;;;;;;;8.40;4.53;;;;;;;;;;21009383;28;20121;-63
2021/05/29 15:03:56;;;;;;;3.08;2.58;;;;;;;;;;21007828;28;20041;-63
2021/05/29 15:13:58;;;;;;;6.13;2.53;;;;;;;;;;21005786;28;20048;-62
2021/05/29 15:24:05;;;;;;;5.78;2.25;;;;;;;;;;21006087;28;20052;-61
2021/05/29 15:34:10;;;;;;;4.93;2.42;;;;;;;;;;21005093;28;20056;-62
2021/05/29 15:44:14;;;;;;;2.67;2.00;;;;;;;;;;21002551;28;20049;-62
2021/05/29 15:54:15;;;;;;;8.75;4.07;;;32.20;24.80;;;;;;21007070;28;20599;-61
2021/05/29 16:04:17;;;;;;;3.05;2.20;;;31.80;25.00;;;;;;21002755;28;20131;-61
2021/05/29 16:14:18;;;;;;;2.83;2.28;;;31.20;25.90;;;;;;21001944;28;20071;-61
2021/05/29 16:24:20;;;;;;;7.40;2.70;;;31.20;26.30;;;;;;21000267;28;20444;-62
2021/05/29 16:34:21;;;;;;;4.50;2.35;;;31.40;26.40;;;;;;20998692;28;20060;-62
2021/05/29 16:44:23;;;;;;;5.20;4.13;;;31.30;26.20;;;;;;20996982;28;20455;-60
2021/05/29 16:54:24;;;;;;;4.55;2.47;;;31.30;26.40;;;;;;20997136;28;20055;-60
2021/05/29 17:04:25;;;;;;;4.43;2.10;;;31.10;26.10;;;;;;20997040;28;20056;-61
2021/05/29 17:14:27;;;;;;;6.72;3.08;;;31.00;26.30;;;;;;20996345;28;20049;-61
2021/05/29 17:24:28;;;;;;;4.82;2.63;;;31.00;26.30;;;;;;20996663;28;20056;-61
2021/05/29 17:34:30;;;;;;;5.57;3.22;;;31.10;26.50;;;;;;20995121;28;20101;-61
2021/05/29 17:44:31;;;;;;;4.30;2.40;;;30.80;26.90;;;;;;20995193;28;20040;-62
2021/05/29 17:54:32;;;;;;;5.57;2.70;;;30.70;26.50;;;;;;20994298;28;20052;-61
2021/05/29 18:04:34;;;;;;;6.07;2.65;;;30.50;26.80;;;;;;21002018;28;20094;-61
2021/05/29 18:14:35;;;;;;;10.23;6.82;;;30.40;27.50;;;;;;21010536;28;20497;-61
2021/05/29 18:24:36;;;;;;;4.68;2.95;;;30.30;27.20;;;;;;21009716;28;20045;-61
2021/05/29 18:34:38;;;;;;;6.15;3.25;;;30.30;27.30;;;;;;21006480;28;20052;-61
2021/05/29 18:44:39;;;;;;;5.07;2.67;;;30.20;27.50;;;;;;21006459;28;20040;-61
2021/05/29 18:54:41;;;;;;;4.88;2.92;;;30.00;28.50;;;;;;21004414;28;20403;-61
2021/05/29 20:26:47;;;;;;;22.15;17.83;;;28.00;34.90;;;;;;20999598;28;20071;-61
2021/05/29 20:36:49;;;;;;;9.18;7.38;;;27.70;36.20;;;;;;20997938;28;20063;-60
2021/05/29 20:46:52;;;;;;;11.20;6.65;;;27.50;37.30;;;;;;20997345;28;20055;-60
2021/05/29 20:56:55;;;;;;;11.80;7.55;;;27.30;38.20;;;;;;20997566;28;20052;-62
2021/05/29 21:06:57;;;;;;;9.63;5.90;;;27.10;38.90;;;;;;20997881;28;20405;-63
2021/05/29 21:17:12;;;;;;;7.55;4.82;;;26.90;39.30;;;;;;20996557;28;20056;-62
2021/05/29 21:27:13;;;;;;;10.40;6.25;;;26.70;39.60;;;;;;20994857;28;20404;-62
2021/05/29 21:37:14;;;;;;;;;;;26.60;39.80;;;;;;20993962;28;20059;-61
2021/05/29 21:57:36;;;;;;;7.72;5.15;;;26.20;41.20;;;;;;20994054;28;20132;-60
2021/05/29 22:07:37;;;;;;;;;;;26.10;42.10;;;;;;20994752;28;20049;-63
2021/05/29 22:38:24;;;;;;;5.82;3.97;;;25.60;44.10;;;;;;20993175;28;20079;-63
2021/05/29 22:48:25;;;;;;;8.68;4.63;;;25.60;44.30;;;;;;20996591;28;20102;-61
2021/05/29 22:58:26;;;;;;;15.93;4.10;;;25.60;44.60;;;;;;21006298;28;20075;-62
2021/05/29 23:08:28;;;;;;;5.63;2.50;;;25.50;43.70;;;;;;21006802;28;20293;-62
2021/05/29 23:18:29;;;;;;;9.87;3.43;;;25.10;44.20;;;;;;21005577;28;20060;-63
2021/05/29 23:28:30;;;;;;;4.33;2.50;;;24.80;44.70;;;;;;21005351;28;20045;-63
2021/05/29 23:38:32;;;;;;;6.38;2.95;;;24.60;44.80;;;;;;21004102;28;20075;-64
2021/05/29 23:48:33;;;;;;;8.10;2.83;;;24.40;44.80;;;;;;21003946;28;20493;-62
2021/05/29 23:58:41;;;;;;;4.60;2.60;;;24.40;44.60;;;;;;21002199;28;20140;-62
